sensor_id;sensor_type;location;lat;lon;timestamp;P1;durP1;ratioP1;P2;durP2;ratioP2
13197;SDS011;6664;52.514;13.440;2023-08-06T00:00:49;5.70;;;5.10;;
13197;SDS011;6664;52.514;13.440;2023-08-06T00:03:35;6.23;;;5.23;;
13197;SDS011;6664;52.514;13.440;2023-08-06T00:06:21;5.23;;;4.83;;
13197;SDS011;6664;52.514;13.440;2023-08-06T00:09:07;6.53;;;5.50;;
13197;SDS011;6664;52.514;13.440;2023-08-06T00:11:55;4.90;;;4.50;;
13197;SDS011;6664;52.514;13.440;2023-08-06T00:14:40;5.30;;;4.80;;
13197;SDS011;6664;52.514;13.440;2023-08-06T00:17:26;5.70;;;5.20;;
13197;SDS011;6664;52.514;13.440;2023-08-06T00:20:12;5.30;;;4.80;;
13197;SDS011;6664;52.514;13.440;2023-08-06T00:23:00;5.17;;;4.63;;
13197;SDS011;6664;52.514;13.440;2023-08-06T00:25:50;7.90;;;4.70;;
13197;SDS011;6664;52.514;13.440;2023-08-06T00:28:36;4.77;;;4.37;;
13197;SDS011;6664;52.514;13.440;2023-08-06T00:31:28;6.50;;;4.90;;
13197;SDS011;6664;52.514;13.440;2023-08-06T00:34:13;5.27;;;4.77;;
13197;SDS011;6664;52.514;13.440;2023-08-06T00:37:01;5.00;;;4.37;;
13197;SDS011;6664;52.514;13.440;2023-08-06T00:39:47;5.80;;;4.93;;
13197;SDS011;6664;52.514;13.440;2023-08-06T00:42:33;4.60;;;4.20;;
13197;SDS011;6664;52.514;13.440;2023-08-06T00:45:19;5.93;;;4.73;;
13197;SDS011;6664;52.514;13.440;2023-08-06T00:48:07;4.50;;;4.10;;
13197;SDS011;6664;52.514;13.440;2023-08-06T00:50:58;5.77;;;5.27;;
13197;SDS011;6664;52.514;13.440;2023-08-06T00:53:46;6.10;;;5.50;;
13197;SDS011;6664;52.514;13.440;2023-08-06T00:56:34;6.50;;;5.10;;
13197;SDS011;6664;52.514;13.440;2023-08-06T00:59:23;5.40;;;4.90;;
13197;SDS011;6664;52.514;13.440;2023-08-06T01:02:09;5.37;;;4.90;;
13197;SDS011;6664;52.514;13.440;2023-08-06T01:04:57;6.93;;;5.03;;
13197;SDS011;6664;52.514;13.440;2023-08-06T01:14:08;5.90;;;5.40;;
13197;SDS011;6664;52.514;13.440;2023-08-06T01:17:05;6.43;;;5.13;;
13197;SDS011;6664;52.514;13.440;2023-08-06T01:19:52;5.27;;;4.80;;
13197;SDS011;6664;52.514;13.440;2023-08-06T01:22:38;7.40;;;4.60;;
13197;SDS011;6664;52.514;13.440;2023-08-06T01:25:26;6.03;;;5.43;;
13197;SDS011;6664;52.514;13.440;2023-08-06T01:28:23;6.10;;;5.40;;
13197;SDS011;6664;52.514;13.440;2023-08-06T01:31:21;4.90;;;4.50;;
13197;SDS011;6664;52.514;13.440;2023-08-06T01:34:21;6.23;;;5.63;;
13197;SDS011;6664;52.514;13.440;2023-08-06T01:37:08;5.10;;;4.60;;
13197;SDS011;6664;52.514;13.440;2023-08-06T01:39:57;5.50;;;4.80;;
13197;SDS011;6664;52.514;13.440;2023-08-06T01:42:43;6.20;;;4.90;;
13197;SDS011;6664;52.514;13.440;2023-08-06T01:45:28;9.63;;;4.80;;
13197;SDS011;6664;52.514;13.440;2023-08-06T01:48:13;5.33;;;4.83;;
13197;SDS011;6664;52.514;13.440;2023-08-06T01:50:59;6.77;;;5.63;;
13197;SDS011;6664;52.514;13.440;2023-08-06T01:53:45;6.50;;;5.90;;
13197;SDS011;6664;52.514;13.440;2023-08-06T01:56:31;5.97;;;5.43;;
13197;SDS011;6664;52.514;13.440;2023-08-06T01:59:17;6.30;;;5.40;;
13197;SDS011;6664;52.514;13.440;2023-08-06T02:02:02;6.10;;;5.50;;
13197;SDS011;6664;52.514;13.440;2023-08-06T02:04:51;6.20;;;5.30;;
13197;SDS011;6664;52.514;13.440;2023-08-06T02:07:37;6.03;;;5.47;;
13197;SDS011;6664;52.514;13.440;2023-08-06T02:10:22;7.10;;;5.60;;
13197;SDS011;6664;52.514;13.440;2023-08-06T02:13:08;6.97;;;6.27;;
13197;SDS011;6664;52.514;13.440;2023-08-06T02:15:53;7.80;;;7.00;;
13197;SDS011;6664;52.514;13.440;2023-08-06T02:18:39;6.70;;;6.10;;
13197;SDS011;6664;52.514;13.440;2023-08-06T02:21:25;9.30;;;5.90;;
13197;SDS011;6664;52.514;13.440;2023-08-06T02:24:10;6.63;;;5.83;;
13197;SDS011;6664;52.514;13.440;2023-08-06T02:26:56;6.73;;;5.83;;
13197;SDS011;6664;52.514;13.440;2023-08-06T02:29:45;8.50;;;6.47;;
13197;SDS011;6664;52.514;13.440;2023-08-06T02:32:31;6.50;;;5.90;;
13197;SDS011;6664;52.514;13.440;2023-08-06T02:35:17;7.27;;;6.07;;
13197;SDS011;6664;52.514;13.440;2023-08-06T02:38:05;6.80;;;5.73;;
13197;SDS011;6664;52.514;13.440;2023-08-06T02:40:51;8.00;;;7.00;;
13197;SDS011;6664;52.514;13.440;2023-08-06T02:43:38;6.77;;;5.73;;
13197;SDS011;6664;52.514;13.440;2023-08-06T02:46:26;7.83;;;6.33;;
13197;SDS011;6664;52.514;13.440;2023-08-06T02:49:11;6.83;;;6.10;;
13197;SDS011;6664;52.514;13.440;2023-08-06T02:51:57;6.83;;;5.87;;
13197;SDS011;6664;52.514;13.440;2023-08-06T02:54:45;6.80;;;6.10;;
13197;SDS011;6664;52.514;13.440;2023-08-06T02:57:31;6.20;;;5.60;;
13197;SDS011;6664;52.514;13.440;2023-08-06T03:00:16;7.50;;;6.23;;
13197;SDS011;6664;52.514;13.440;2023-08-06T03:03:03;5.97;;;4.80;;
13197;SDS011;6664;52.514;13.440;2023-08-06T03:05:52;5.63;;;5.10;;
13197;SDS011;6664;52.514;13.440;2023-08-06T03:08:39;8.13;;;6.00;;
13197;SDS011;6664;52.514;13.440;2023-08-06T03:11:24;5.17;;;4.70;;
13197;SDS011;6664;52.514;13.440;2023-08-06T03:14:10;6.20;;;5.10;;
13197;SDS011;6664;52.514;13.440;2023-08-06T03:16:58;5.90;;;4.43;;
13197;SDS011;6664;52.514;13.440;2023-08-06T03:19:44;6.13;;;5.47;;
13197;SDS011;6664;52.514;13.440;2023-08-06T03:22:29;6.13;;;5.30;;
13197;SDS011;6664;52.514;13.440;2023-08-06T03:25:15;5.93;;;5.10;;
13197;SDS011;6664;52.514;13.440;2023-08-06T03:28:03;6.37;;;5.63;;
13197;SDS011;6664;52.514;13.440;2023-08-06T03:30:58;8.13;;;5.63;;
13197;SDS011;6664;52.514;13.440;2023-08-06T03:33:44;6.90;;;5.60;;
13197;SDS011;6664;52.514;13.440;2023-08-06T03:36:30;6.07;;;5.47;;
13197;SDS011;6664;52.514;13.440;2023-08-06T03:39:18;7.70;;;6.07;;
13197;SDS011;6664;52.514;13.440;2023-08-06T03:42:03;6.57;;;5.50;;
13197;SDS011;6664;52.514;13.440;2023-08-06T03:44:50;9.27;;;5.77;;
13197;SDS011;6664;52.514;13.440;2023-08-06T03:47:38;5.50;;;5.00;;
13197;SDS011;6664;52.514;13.440;2023-08-06T03:50:26;8.40;;;6.13;;
13197;SDS011;6664;52.514;13.440;2023-08-06T03:53:11;10.43;;;6.83;;
13197;SDS011;6664;52.514;13.440;2023-08-06T03:55:56;8.90;;;6.77;;
13197;SDS011;6664;52.514;13.440;2023-08-06T03:58:44;8.77;;;7.37;;
13197;SDS011;6664;52.514;13.440;2023-08-06T04:01:30;9.30;;;6.50;;
13197;SDS011;6664;52.514;13.440;2023-08-06T04:04:15;6.90;;;6.10;;
13197;SDS011;6664;52.514;13.440;2023-08-06T04:07:01;6.00;;;5.40;;
13197;SDS011;6664;52.514;13.440;2023-08-06T04:09:59;6.20;;;5.57;;
13197;SDS011;6664;52.514;13.440;2023-08-06T04:12:47;5.03;;;4.40;;
13197;SDS011;6664;52.514;13.440;2023-08-06T04:15:35;9.03;;;5.30;;
13197;SDS011;6664;52.514;13.440;2023-08-06T04:18:24;7.67;;;5.63;;
13197;SDS011;6664;52.514;13.440;2023-08-06T04:21:11;6.53;;;5.20;;
13197;SDS011;6664;52.514;13.440;2023-08-06T04:24:00;5.67;;;5.17;;
13197;SDS011;6664;52.514;13.440;2023-08-06T04:26:46;5.40;;;4.93;;
13197;SDS011;6664;52.514;13.440;2023-08-06T04:29:31;5.70;;;5.23;;
13197;SDS011;6664;52.514;13.440;2023-08-06T04:32:17;5.43;;;4.93;;
13197;SDS011;6664;52.514;13.440;2023-08-06T04:35:04;7.33;;;5.10;;
13197;SDS011;6664;52.514;13.440;2023-08-06T04:37:50;5.30;;;4.77;;
13197;SDS011;6664;52.514;13.440;2023-08-06T04:40:36;5.43;;;4.87;;
13197;SDS011;6664;52.514;13.440;2023-08-06T04:43:21;7.73;;;4.60;;
13197;SDS011;6664;52.514;13.440;2023-08-06T04:46:10;5.20;;;4.70;;
13197;SDS011;6664;52.514;13.440;2023-08-06T04:49:00;6.47;;;5.70;;
13197;SDS011;6664;52.514;13.440;2023-08-06T04:51:46;5.60;;;5.10;;
13197;SDS011;6664;52.514;13.440;2023-08-06T04:54:33;6.00;;;5.40;;
13197;SDS011;6664;52.514;13.440;2023-08-06T04:57:19;5.97;;;4.83;;
13197;SDS011;6664;52.514;13.440;2023-08-06T05:00:04;6.23;;;5.40;;
13197;SDS011;6664;52.514;13.440;2023-08-06T05:02:50;5.73;;;5.00;;
13197;SDS011;6664;52.514;13.440;2023-08-06T05:05:36;5.83;;;4.63;;
13197;SDS011;6664;52.514;13.440;2023-08-06T05:08:22;5.13;;;4.70;;
13197;SDS011;6664;52.514;13.440;2023-08-06T05:11:07;6.30;;;4.80;;
13197;SDS011;6664;52.514;13.440;2023-08-06T05:13:54;5.17;;;4.67;;
13197;SDS011;6664;52.514;13.440;2023-08-06T05:16:39;6.63;;;5.20;;
13197;SDS011;6664;52.514;13.440;2023-08-06T05:19:25;5.90;;;5.17;;
13197;SDS011;6664;52.514;13.440;2023-08-06T05:22:10;5.10;;;4.60;;
13197;SDS011;6664;52.514;13.440;2023-08-06T05:24:56;4.80;;;4.40;;
13197;SDS011;6664;52.514;13.440;2023-08-06T05:27:41;5.80;;;4.70;;
13197;SDS011;6664;52.514;13.440;2023-08-06T05:30:29;7.80;;;5.27;;
13197;SDS011;6664;52.514;13.440;2023-08-06T05:33:15;5.17;;;4.60;;
13197;SDS011;6664;52.514;13.440;2023-08-06T05:36:00;5.13;;;4.73;;
13197;SDS011;6664;52.514;13.440;2023-08-06T05:38:46;5.60;;;4.30;;
13197;SDS011;6664;52.514;13.440;2023-08-06T05:41:31;6.40;;;4.53;;
13197;SDS011;6664;52.514;13.440;2023-08-06T05:44:19;4.00;;;3.70;;
13197;SDS011;6664;52.514;13.440;2023-08-06T05:47:04;4.07;;;3.77;;
13197;SDS011;6664;52.514;13.440;2023-08-06T05:49:50;4.57;;;3.83;;
13197;SDS011;6664;52.514;13.440;2023-08-06T05:52:38;4.10;;;3.70;;
13197;SDS011;6664;52.514;13.440;2023-08-06T05:55:24;4.47;;;3.90;;
13197;SDS011;6664;52.514;13.440;2023-08-06T05:58:10;4.67;;;4.30;;
13197;SDS011;6664;52.514;13.440;2023-08-06T06:00:58;4.20;;;3.90;;
13197;SDS011;6664;52.514;13.440;2023-08-06T06:03:46;3.93;;;3.53;;
13197;SDS011;6664;52.514;13.440;2023-08-06T06:06:32;3.33;;;3.13;;
13197;SDS011;6664;52.514;13.440;2023-08-06T06:09:17;4.40;;;4.00;;
13197;SDS011;6664;52.514;13.440;2023-08-06T06:12:05;5.03;;;3.80;;
13197;SDS011;6664;52.514;13.440;2023-08-06T06:14:54;4.70;;;4.30;;
13197;SDS011;6664;52.514;13.440;2023-08-06T06:17:39;4.90;;;4.40;;
13197;SDS011;6664;52.514;13.440;2023-08-06T06:20:25;4.70;;;4.30;;
13197;SDS011;6664;52.514;13.440;2023-08-06T06:23:10;4.20;;;3.70;;
13197;SDS011;6664;52.514;13.440;2023-08-06T06:25:56;4.60;;;4.17;;
13197;SDS011;6664;52.514;13.440;2023-08-06T06:28:41;6.17;;;3.90;;
13197;SDS011;6664;52.514;13.440;2023-08-06T06:31:29;4.10;;;3.80;;
13197;SDS011;6664;52.514;13.440;2023-08-06T06:34:15;5.30;;;4.20;;
13197;SDS011;6664;52.514;13.440;2023-08-06T06:37:00;5.10;;;4.70;;
13197;SDS011;6664;52.514;13.440;2023-08-06T06:39:46;5.80;;;4.30;;
13197;SDS011;6664;52.514;13.440;2023-08-06T06:42:31;5.57;;;5.07;;
13197;SDS011;6664;52.514;13.440;2023-08-06T06:45:21;4.20;;;3.83;;
13197;SDS011;6664;52.514;13.440;2023-08-06T06:48:07;4.33;;;3.93;;
13197;SDS011;6664;52.514;13.440;2023-08-06T06:50:55;4.43;;;4.03;;
13197;SDS011;6664;52.514;13.440;2023-08-06T06:53:41;7.60;;;4.77;;
13197;SDS011;6664;52.514;13.440;2023-08-06T06:56:26;4.60;;;4.10;;
13197;SDS011;6664;52.514;13.440;2023-08-06T06:59:12;4.20;;;3.90;;
13197;SDS011;6664;52.514;13.440;2023-08-06T07:02:00;4.80;;;4.37;;
13197;SDS011;6664;52.514;13.440;2023-08-06T07:04:47;4.50;;;4.10;;
13197;SDS011;6664;52.514;13.440;2023-08-06T07:07:33;4.50;;;4.10;;
13197;SDS011;6664;52.514;13.440;2023-08-06T07:10:18;4.83;;;4.03;;
13197;SDS011;6664;52.514;13.440;2023-08-06T07:13:08;6.97;;;3.80;;
13197;SDS011;6664;52.514;13.440;2023-08-06T07:15:54;3.60;;;3.30;;
13197;SDS011;6664;52.514;13.440;2023-08-06T07:18:40;4.27;;;3.87;;
13197;SDS011;6664;52.514;13.440;2023-08-06T07:21:26;3.20;;;3.00;;
13197;SDS011;6664;52.514;13.440;2023-08-06T07:24:11;3.17;;;2.97;;
13197;SDS011;6664;52.514;13.440;2023-08-06T07:26:57;3.30;;;3.00;;
13197;SDS011;6664;52.514;13.440;2023-08-06T07:29:45;3.43;;;3.23;;
13197;SDS011;6664;52.514;13.440;2023-08-06T07:32:33;3.60;;;3.30;;
13197;SDS011;6664;52.514;13.440;2023-08-06T07:35:18;4.03;;;3.73;;
13197;SDS011;6664;52.514;13.440;2023-08-06T07:38:06;3.83;;;3.50;;
13197;SDS011;6664;52.514;13.440;2023-08-06T07:40:53;3.40;;;3.13;;
13197;SDS011;6664;52.514;13.440;2023-08-06T07:43:39;4.13;;;3.70;;
13197;SDS011;6664;52.514;13.440;2023-08-06T07:46:27;3.83;;;3.53;;
13197;SDS011;6664;52.514;13.440;2023-08-06T07:49:15;3.90;;;3.60;;
13197;SDS011;6664;52.514;13.440;2023-08-06T07:52:03;5.53;;;3.43;;
13197;SDS011;6664;52.514;13.440;2023-08-06T07:54:48;6.47;;;4.70;;
13197;SDS011;6664;52.514;13.440;2023-08-06T07:57:34;3.97;;;3.67;;
13197;SDS011;6664;52.514;13.440;2023-08-06T08:00:19;6.03;;;4.20;;
13197;SDS011;6664;52.514;13.440;2023-08-06T08:03:05;4.20;;;3.80;;
13197;SDS011;6664;52.514;13.440;2023-08-06T08:05:54;5.93;;;4.10;;
13197;SDS011;6664;52.514;13.440;2023-08-06T08:08:42;5.80;;;5.20;;
13197;SDS011;6664;52.514;13.440;2023-08-06T08:11:28;4.93;;;4.50;;
13197;SDS011;6664;52.514;13.440;2023-08-06T08:14:14;4.37;;;4.07;;
13197;SDS011;6664;52.514;13.440;2023-08-06T08:17:00;5.33;;;4.80;;
13197;SDS011;6664;52.514;13.440;2023-08-06T08:19:48;5.33;;;4.87;;
13197;SDS011;6664;52.514;13.440;2023-08-06T08:22:33;4.50;;;4.10;;
13197;SDS011;6664;52.514;13.440;2023-08-06T08:25:18;5.13;;;4.63;;
13197;SDS011;6664;52.514;13.440;2023-08-06T08:28:04;4.30;;;3.90;;
13197;SDS011;6664;52.514;13.440;2023-08-06T08:30:52;5.20;;;4.57;;
13197;SDS011;6664;52.514;13.440;2023-08-06T08:33:38;5.40;;;4.97;;
13197;SDS011;6664;52.514;13.440;2023-08-06T08:36:23;4.60;;;4.20;;
13197;SDS011;6664;52.514;13.440;2023-08-06T08:39:11;4.97;;;4.17;;
13197;SDS011;6664;52.514;13.440;2023-08-06T08:41:56;5.40;;;4.97;;
13197;SDS011;6664;52.514;13.440;2023-08-06T08:44:42;4.87;;;4.33;;
13197;SDS011;6664;52.514;13.440;2023-08-06T08:47:30;4.10;;;3.80;;
13197;SDS011;6664;52.514;13.440;2023-08-06T08:50:16;6.10;;;5.27;;
13197;SDS011;6664;52.514;13.440;2023-08-06T08:53:04;4.73;;;4.33;;
13197;SDS011;6664;52.514;13.440;2023-08-06T08:55:50;5.40;;;4.90;;
13197;SDS011;6664;52.514;13.440;2023-08-06T08:58:39;5.93;;;5.03;;
13197;SDS011;6664;52.514;13.440;2023-08-06T09:01:27;5.23;;;4.80;;
13197;SDS011;6664;52.514;13.440;2023-08-06T09:04:14;6.40;;;5.80;;
13197;SDS011;6664;52.514;13.440;2023-08-06T09:06:59;6.30;;;4.83;;
13197;SDS011;6664;52.514;13.440;2023-08-06T09:09:47;5.73;;;5.23;;
13197;SDS011;6664;52.514;13.440;2023-08-06T09:12:37;6.27;;;5.60;;
13197;SDS011;6664;52.514;13.440;2023-08-06T09:15:26;6.70;;;5.87;;
13197;SDS011;6664;52.514;13.440;2023-08-06T09:18:14;5.90;;;5.30;;
13197;SDS011;6664;52.514;13.440;2023-08-06T09:21:00;8.67;;;5.17;;
13197;SDS011;6664;52.514;13.440;2023-08-06T09:23:45;6.20;;;5.30;;
13197;SDS011;6664;52.514;13.440;2023-08-06T09:26:34;5.07;;;4.67;;
13197;SDS011;6664;52.514;13.440;2023-08-06T09:29:22;6.23;;;5.60;;
13197;SDS011;6664;52.514;13.440;2023-08-06T09:32:08;6.90;;;5.67;;
13197;SDS011;6664;52.514;13.440;2023-08-06T09:34:56;6.47;;;5.87;;
13197;SDS011;6664;52.514;13.440;2023-08-06T09:37:42;8.70;;;7.80;;
13197;SDS011;6664;52.514;13.440;2023-08-06T09:40:29;6.47;;;5.87;;
13197;SDS011;6664;52.514;13.440;2023-08-06T09:43:18;6.73;;;5.93;;
13197;SDS011;6664;52.514;13.440;2023-08-06T09:46:10;6.73;;;6.03;;
13197;SDS011;6664;52.514;13.440;2023-08-06T09:49:00;7.30;;;5.20;;
13197;SDS011;6664;52.514;13.440;2023-08-06T09:51:47;6.20;;;5.60;;
13197;SDS011;6664;52.514;13.440;2023-08-06T09:54:37;4.97;;;4.47;;
13197;SDS011;6664;52.514;13.440;2023-08-06T09:57:23;5.77;;;5.27;;
13197;SDS011;6664;52.514;13.440;2023-08-06T10:00:10;6.03;;;5.10;;
13197;SDS011;6664;52.514;13.440;2023-08-06T10:02:59;4.97;;;3.90;;
13197;SDS011;6664;52.514;13.440;2023-08-06T10:05:45;3.60;;;3.30;;
13197;SDS011;6664;52.514;13.440;2023-08-06T10:08:33;3.17;;;2.97;;
13197;SDS011;6664;52.514;13.440;2023-08-06T10:11:20;2.03;;;1.93;;
13197;SDS011;6664;52.514;13.440;2023-08-06T10:14:10;2.57;;;2.47;;
13197;SDS011;6664;52.514;13.440;2023-08-06T10:17:18;3.40;;;3.10;;
13197;SDS011;6664;52.514;13.440;2023-08-06T10:20:04;3.97;;;3.67;;
13197;SDS011;6664;52.514;13.440;2023-08-06T10:23:02;2.90;;;2.70;;
13197;SDS011;6664;52.514;13.440;2023-08-06T10:25:55;2.43;;;2.23;;
13197;SDS011;6664;52.514;13.440;2023-08-06T10:28:44;3.13;;;2.83;;
13197;SDS011;6664;52.514;13.440;2023-08-06T10:37:44;2.90;;;2.70;;
13197;SDS011;6664;52.514;13.440;2023-08-06T10:40:30;2.47;;;2.27;;
13197;SDS011;6664;52.514;13.440;2023-08-06T10:46:23;2.60;;;2.40;;
13197;SDS011;6664;52.514;13.440;2023-08-06T10:49:12;1.97;;;1.87;;
13197;SDS011;6664;52.514;13.440;2023-08-06T10:52:02;2.00;;;1.90;;
13197;SDS011;6664;52.514;13.440;2023-08-06T10:54:51;2.57;;;2.37;;
13197;SDS011;6664;52.514;13.440;2023-08-06T10:57:39;2.73;;;2.53;;
13197;SDS011;6664;52.514;13.440;2023-08-06T11:00:25;3.77;;;2.40;;
13197;SDS011;6664;52.514;13.440;2023-08-06T11:03:13;2.90;;;2.70;;
13197;SDS011;6664;52.514;13.440;2023-08-06T11:06:02;2.33;;;2.23;;
13197;SDS011;6664;52.514;13.440;2023-08-06T11:08:52;3.40;;;2.70;;
13197;SDS011;6664;52.514;13.440;2023-08-06T11:11:38;2.63;;;2.43;;
13197;SDS011;6664;52.514;13.440;2023-08-06T11:14:24;3.03;;;2.83;;
13197;SDS011;6664;52.514;13.440;2023-08-06T11:17:09;2.90;;;2.70;;
13197;SDS011;6664;52.514;13.440;2023-08-06T11:20:01;2.97;;;2.77;;
13197;SDS011;6664;52.514;13.440;2023-08-06T11:22:48;2.83;;;2.63;;
13197;SDS011;6664;52.514;13.440;2023-08-06T11:25:43;3.00;;;2.80;;
13197;SDS011;6664;52.514;13.440;2023-08-06T11:28:30;3.30;;;3.10;;
13197;SDS011;6664;52.514;13.440;2023-08-06T11:31:19;3.07;;;2.87;;
13197;SDS011;6664;52.514;13.440;2023-08-06T11:34:08;3.10;;;2.90;;
13197;SDS011;6664;52.514;13.440;2023-08-06T11:36:57;4.73;;;2.90;;
13197;SDS011;6664;52.514;13.440;2023-08-06T11:39:46;3.37;;;3.10;;
13197;SDS011;6664;52.514;13.440;2023-08-06T11:42:35;3.70;;;2.77;;
13197;SDS011;6664;52.514;13.440;2023-08-06T11:45:24;3.50;;;3.30;;
13197;SDS011;6664;52.514;13.440;2023-08-06T11:48:10;4.17;;;3.47;;
13197;SDS011;6664;52.514;13.440;2023-08-06T11:50:55;4.97;;;3.70;;
13197;SDS011;6664;52.514;13.440;2023-08-06T11:53:46;3.80;;;3.50;;
13197;SDS011;6664;52.514;13.440;2023-08-06T11:56:34;3.60;;;3.23;;
13197;SDS011;6664;52.514;13.440;2023-08-06T11:59:25;3.53;;;3.23;;
13197;SDS011;6664;52.514;13.440;2023-08-06T12:02:11;3.30;;;3.10;;
13197;SDS011;6664;52.514;13.440;2023-08-06T12:04:57;4.20;;;3.60;;
13197;SDS011;6664;52.514;13.440;2023-08-06T12:07:53;3.60;;;3.33;;
13197;SDS011;6664;52.514;13.440;2023-08-06T12:10:42;6.33;;;4.00;;
13197;SDS011;6664;52.514;13.440;2023-08-06T12:13:27;4.17;;;3.43;;
13197;SDS011;6664;52.514;13.440;2023-08-06T12:16:18;7.97;;;3.90;;
13197;SDS011;6664;52.514;13.440;2023-08-06T12:19:04;4.80;;;4.30;;
13197;SDS011;6664;52.514;13.440;2023-08-06T12:21:52;4.63;;;4.13;;
13197;SDS011;6664;52.514;13.440;2023-08-06T12:24:41;5.27;;;4.00;;
13197;SDS011;6664;52.514;13.440;2023-08-06T12:27:31;5.20;;;4.70;;
13197;SDS011;6664;52.514;13.440;2023-08-06T12:30:17;5.07;;;3.73;;
13197;SDS011;6664;52.514;13.440;2023-08-06T12:33:05;3.87;;;3.57;;
13197;SDS011;6664;52.514;13.440;2023-08-06T12:35:52;4.30;;;3.90;;
13197;SDS011;6664;52.514;13.440;2023-08-06T12:38:40;5.53;;;4.37;;
13197;SDS011;6664;52.514;13.440;2023-08-06T12:41:29;4.73;;;4.33;;
13197;SDS011;6664;52.514;13.440;2023-08-06T12:44:16;4.93;;;4.53;;
13197;SDS011;6664;52.514;13.440;2023-08-06T12:47:03;4.90;;;4.50;;
13197;SDS011;6664;52.514;13.440;2023-08-06T12:49:49;4.47;;;4.17;;
13197;SDS011;6664;52.514;13.440;2023-08-06T12:52:34;4.20;;;3.80;;
13197;SDS011;6664;52.514;13.440;2023-08-06T12:55:20;5.70;;;4.63;;
13197;SDS011;6664;52.514;13.440;2023-08-06T12:58:05;6.93;;;4.93;;
13197;SDS011;6664;52.514;13.440;2023-08-06T13:00:51;4.27;;;3.97;;
13197;SDS011;6664;52.514;13.440;2023-08-06T13:03:36;5.67;;;5.13;;
13197;SDS011;6664;52.514;13.440;2023-08-06T13:06:22;4.30;;;3.97;;
13197;SDS011;6664;52.514;13.440;2023-08-06T13:09:08;4.30;;;3.97;;
13197;SDS011;6664;52.514;13.440;2023-08-06T13:11:54;4.20;;;3.80;;
13197;SDS011;6664;52.514;13.440;2023-08-06T13:14:44;5.00;;;4.50;;
13197;SDS011;6664;52.514;13.440;2023-08-06T13:17:31;4.80;;;4.30;;
13197;SDS011;6664;52.514;13.440;2023-08-06T13:20:19;6.10;;;4.73;;
13197;SDS011;6664;52.514;13.440;2023-08-06T13:23:05;5.23;;;4.07;;
13197;SDS011;6664;52.514;13.440;2023-08-06T13:25:52;5.13;;;4.20;;
13197;SDS011;6664;52.514;13.440;2023-08-06T13:28:38;4.90;;;4.40;;
13197;SDS011;6664;52.514;13.440;2023-08-06T13:31:24;8.07;;;3.87;;
13197;SDS011;6664;52.514;13.440;2023-08-06T13:34:11;4.20;;;3.80;;
13197;SDS011;6664;52.514;13.440;2023-08-06T13:36:59;5.33;;;4.00;;
13197;SDS011;6664;52.514;13.440;2023-08-06T13:39:45;4.63;;;3.87;;
13197;SDS011;6664;52.514;13.440;2023-08-06T13:42:33;4.30;;;3.87;;
13197;SDS011;6664;52.514;13.440;2023-08-06T13:45:19;3.83;;;3.33;;
13197;SDS011;6664;52.514;13.440;2023-08-06T13:48:05;3.80;;;3.53;;
13197;SDS011;6664;52.514;13.440;2023-08-06T13:50:51;3.57;;;3.27;;
13197;SDS011;6664;52.514;13.440;2023-08-06T13:53:37;5.30;;;4.50;;
13197;SDS011;6664;52.514;13.440;2023-08-06T13:56:23;4.07;;;3.50;;
13197;SDS011;6664;52.514;13.440;2023-08-06T13:59:09;3.87;;;3.57;;
13197;SDS011;6664;52.514;13.440;2023-08-06T14:01:58;4.07;;;3.00;;
13197;SDS011;6664;52.514;13.440;2023-08-06T14:04:44;4.00;;;3.60;;
13197;SDS011;6664;52.514;13.440;2023-08-06T14:07:32;2.97;;;2.73;;
13197;SDS011;6664;52.514;13.440;2023-08-06T14:10:18;7.10;;;3.50;;
13197;SDS011;6664;52.514;13.440;2023-08-06T14:13:03;3.83;;;2.57;;
13197;SDS011;6664;52.514;13.440;2023-08-06T14:15:54;3.40;;;3.10;;
13197;SDS011;6664;52.514;13.440;2023-08-06T14:18:41;7.03;;;3.33;;
13197;SDS011;6664;52.514;13.440;2023-08-06T14:21:26;5.07;;;2.80;;
13197;SDS011;6664;52.514;13.440;2023-08-06T14:24:12;3.13;;;2.83;;
13197;SDS011;6664;52.514;13.440;2023-08-06T14:26:57;3.27;;;2.97;;
13197;SDS011;6664;52.514;13.440;2023-08-06T14:29:43;3.80;;;2.83;;
13197;SDS011;6664;52.514;13.440;2023-08-06T14:32:29;2.90;;;2.60;;
13197;SDS011;6664;52.514;13.440;2023-08-06T14:35:17;3.07;;;2.87;;
13197;SDS011;6664;52.514;13.440;2023-08-06T14:38:05;3.67;;;2.70;;
13197;SDS011;6664;52.514;13.440;2023-08-06T14:40:51;3.53;;;2.60;;
13197;SDS011;6664;52.514;13.440;2023-08-06T14:43:36;2.73;;;2.53;;
13197;SDS011;6664;52.514;13.440;2023-08-06T14:46:22;2.90;;;2.40;;
13197;SDS011;6664;52.514;13.440;2023-08-06T14:49:08;2.83;;;2.10;;
13197;SDS011;6664;52.514;13.440;2023-08-06T14:51:54;3.40;;;2.67;;
13197;SDS011;6664;52.514;13.440;2023-08-06T14:54:44;4.80;;;2.20;;
13197;SDS011;6664;52.514;13.440;2023-08-06T14:57:30;2.40;;;1.93;;
13197;SDS011;6664;52.514;13.440;2023-08-06T15:00:18;2.87;;;2.67;;
13197;SDS011;6664;52.514;13.440;2023-08-06T15:03:06;2.53;;;2.40;;
13197;SDS011;6664;52.514;13.440;2023-08-06T15:05:54;2.63;;;2.40;;
13197;SDS011;6664;52.514;13.440;2023-08-06T15:08:39;2.40;;;2.20;;
13197;SDS011;6664;52.514;13.440;2023-08-06T15:11:27;2.27;;;2.17;;
13197;SDS011;6664;52.514;13.440;2023-08-06T15:14:13;2.47;;;2.27;;
13197;SDS011;6664;52.514;13.440;2023-08-06T15:17:02;5.50;;;2.00;;
13197;SDS011;6664;52.514;13.440;2023-08-06T15:19:48;2.00;;;1.90;;
13197;SDS011;6664;52.514;13.440;2023-08-06T15:22:34;3.03;;;2.10;;
13197;SDS011;6664;52.514;13.440;2023-08-06T15:25:21;2.47;;;2.27;;
13197;SDS011;6664;52.514;13.440;2023-08-06T15:28:07;2.13;;;2.00;;
13197;SDS011;6664;52.514;13.440;2023-08-06T15:30:53;1.73;;;1.63;;
13197;SDS011;6664;52.514;13.440;2023-08-06T15:33:40;3.03;;;2.20;;
13197;SDS011;6664;52.514;13.440;2023-08-06T15:36:27;2.80;;;1.83;;
13197;SDS011;6664;52.514;13.440;2023-08-06T15:39:16;1.87;;;1.77;;
13197;SDS011;6664;52.514;13.440;2023-08-06T15:42:01;1.80;;;1.70;;
13197;SDS011;6664;52.514;13.440;2023-08-06T15:44:49;4.10;;;2.60;;
13197;SDS011;6664;52.514;13.440;2023-08-06T15:47:37;2.93;;;2.10;;
13197;SDS011;6664;52.514;13.440;2023-08-06T15:50:25;5.40;;;3.57;;
13197;SDS011;6664;52.514;13.440;2023-08-06T15:53:11;3.80;;;2.20;;
13197;SDS011;6664;52.514;13.440;2023-08-06T15:55:57;2.20;;;2.10;;
13197;SDS011;6664;52.514;13.440;2023-08-06T15:58:43;2.00;;;1.57;;
13197;SDS011;6664;52.514;13.440;2023-08-06T16:01:29;2.10;;;2.00;;
13197;SDS011;6664;52.514;13.440;2023-08-06T16:04:14;2.00;;;1.90;;
13197;SDS011;6664;52.514;13.440;2023-08-06T16:07:00;3.13;;;1.77;;
13197;SDS011;6664;52.514;13.440;2023-08-06T16:09:49;2.27;;;2.17;;
13197;SDS011;6664;52.514;13.440;2023-08-06T16:12:35;2.20;;;2.00;;
13197;SDS011;6664;52.514;13.440;2023-08-06T16:15:21;2.43;;;2.03;;
13197;SDS011;6664;52.514;13.440;2023-08-06T16:18:06;2.60;;;2.40;;
13197;SDS011;6664;52.514;13.440;2023-08-06T16:20:54;1.90;;;1.80;;
13197;SDS011;6664;52.514;13.440;2023-08-06T16:23:39;2.07;;;1.87;;
13197;SDS011;6664;52.514;13.440;2023-08-06T16:26:25;2.70;;;2.47;;
13197;SDS011;6664;52.514;13.440;2023-08-06T16:29:13;2.63;;;1.80;;
13197;SDS011;6664;52.514;13.440;2023-08-06T16:31:59;1.97;;;1.87;;
13197;SDS011;6664;52.514;13.440;2023-08-06T16:34:45;5.83;;;2.73;;
13197;SDS011;6664;52.514;13.440;2023-08-06T16:37:35;2.17;;;1.97;;
13197;SDS011;6664;52.514;13.440;2023-08-06T16:40:21;2.27;;;2.07;;
13197;SDS011;6664;52.514;13.440;2023-08-06T16:43:09;2.50;;;2.30;;
13197;SDS011;6664;52.514;13.440;2023-08-06T16:45:55;3.87;;;2.40;;
13197;SDS011;6664;52.514;13.440;2023-08-06T16:48:41;5.40;;;3.30;;
13197;SDS011;6664;52.514;13.440;2023-08-06T16:51:27;2.37;;;2.17;;
13197;SDS011;6664;52.514;13.440;2023-08-06T16:54:12;2.27;;;2.07;;
13197;SDS011;6664;52.514;13.440;2023-08-06T16:56:58;2.97;;;1.93;;
13197;SDS011;6664;52.514;13.440;2023-08-06T16:59:45;2.27;;;2.07;;
13197;SDS011;6664;52.514;13.440;2023-08-06T17:02:31;4.70;;;2.27;;